createdAt,value
2023-04-30T00:00:19.460Z,0.00
2023-04-30T00:01:19.440Z,0.00
2023-04-30T00:02:19.368Z,0.00
2023-04-30T00:03:19.484Z,0.00
2023-04-30T00:04:19.485Z,0.00
2023-04-30T00:05:19.447Z,0.00
2023-04-30T00:06:19.424Z,0.00
2023-04-30T00:07:19.276Z,0.00
2023-04-30T00:08:19.375Z,0.00
2023-04-30T00:09:19.295Z,0.00
2023-04-30T00:10:19.356Z,0.00
2023-04-30T00:11:19.397Z,0.00
2023-04-30T00:12:19.421Z,0.00
2023-04-30T00:13:19.443Z,0.00
2023-04-30T00:14:19.351Z,0.00
2023-04-30T00:15:19.299Z,0.00
2023-04-30T00:16:19.431Z,0.00
2023-04-30T00:17:19.278Z,0.00
2023-04-30T00:18:19.379Z,0.00
2023-04-30T00:19:19.319Z,0.00
2023-04-30T00:20:19.266Z,0.00
2023-04-30T00:21:19.278Z,0.00
2023-04-30T00:22:19.307Z,0.00
2023-04-30T00:23:19.190Z,0.00
2023-04-30T00:24:19.326Z,0.00
2023-04-30T00:25:19.191Z,0.00
2023-04-30T00:26:19.198Z,0.00
2023-04-30T00:27:19.188Z,0.00
2023-04-30T00:28:19.044Z,0.00
2023-04-30T00:29:19.214Z,0.00
2023-04-30T00:30:19.123Z,0.00
2023-04-30T00:31:19.141Z,0.00
2023-04-30T00:32:19.014Z,0.00
2023-04-30T00:33:18.943Z,0.00
2023-04-30T00:34:19.164Z,0.00
2023-04-30T00:35:19.104Z,0.00
2023-04-30T00:36:19.042Z,0.00
2023-04-30T00:37:19.066Z,0.00
2023-04-30T00:38:19.071Z,0.00
2023-04-30T00:39:19.129Z,0.00
2023-04-30T00:40:19.061Z,0.00
2023-04-30T00:41:18.999Z,0.00
2023-04-30T00:42:19.069Z,0.00
2023-04-30T00:43:18.892Z,0.00
2023-04-30T00:44:19.006Z,0.00
2023-04-30T00:45:19.008Z,0.00
2023-04-30T00:46:18.880Z,0.00
2023-04-30T00:47:18.930Z,0.00
2023-04-30T00:48:18.939Z,0.00
2023-04-30T00:49:18.944Z,0.00
2023-04-30T00:50:18.930Z,0.00
2023-04-30T00:51:18.989Z,0.00
2023-04-30T00:52:18.976Z,0.00
2023-04-30T00:53:18.971Z,0.00
2023-04-30T00:54:18.977Z,0.00
2023-04-30T00:55:18.845Z,0.00
2023-04-30T00:56:19.010Z,0.00
2023-04-30T00:57:18.955Z,0.00
2023-04-30T00:58:18.819Z,0.00
2023-04-30T00:59:18.737Z,0.00
2023-04-30T01:00:18.851Z,0.00
2023-04-30T01:01:18.930Z,0.00
2023-04-30T01:02:18.778Z,0.00
2023-04-30T01:03:18.950Z,0.00
2023-04-30T01:04:18.782Z,0.00
2023-04-30T01:05:18.713Z,0.00
2023-04-30T01:06:18.768Z,0.00
2023-04-30T01:07:18.839Z,0.00
2023-04-30T01:08:18.686Z,0.00
2023-04-30T01:09:18.701Z,0.00
2023-04-30T01:10:18.685Z,0.00
2023-04-30T01:11:18.603Z,0.00
2023-04-30T01:12:18.699Z,0.00
2023-04-30T01:13:18.780Z,0.00
2023-04-30T01:14:18.722Z,0.00
2023-04-30T01:15:18.514Z,0.00
2023-04-30T01:16:18.678Z,0.00
2023-04-30T01:17:18.769Z,0.00
2023-04-30T01:18:18.668Z,0.00
2023-04-30T01:19:18.680Z,0.00
2023-04-30T01:20:18.606Z,0.00
2023-04-30T01:21:18.548Z,0.00
2023-04-30T01:22:18.572Z,0.00
2023-04-30T01:23:18.634Z,0.00
2023-04-30T01:24:18.540Z,0.00
2023-04-30T01:25:18.664Z,0.00
2023-04-30T01:26:18.488Z,0.00
2023-04-30T01:27:18.506Z,0.00
2023-04-30T01:28:18.508Z,0.00
2023-04-30T01:29:18.532Z,0.00
2023-04-30T01:30:18.556Z,0.00
2023-04-30T01:31:18.419Z,0.00
2023-04-30T01:32:18.361Z,0.00
2023-04-30T01:33:18.487Z,0.00
2023-04-30T01:34:18.423Z,0.00
2023-04-30T01:35:18.472Z,0.00
2023-04-30T01:36:18.415Z,0.00
2023-04-30T01:37:18.365Z,0.00
2023-04-30T01:38:18.497Z,0.00
2023-04-30T01:39:18.340Z,0.00
2023-04-30T01:40:18.367Z,0.00
2023-04-30T01:41:18.435Z,0.00
2023-04-30T01:42:18.358Z,0.00
2023-04-30T01:43:18.349Z,0.00
2023-04-30T01:44:18.331Z,0.00
2023-04-30T01:45:18.313Z,0.00
2023-04-30T01:46:18.418Z,0.00
2023-04-30T01:47:18.359Z,0.00
2023-04-30T01:48:18.273Z,0.00
2023-04-30T01:49:18.275Z,0.00
2023-04-30T01:50:18.284Z,0.00
2023-04-30T01:51:18.286Z,0.00
2023-04-30T01:52:18.289Z,0.00
2023-04-30T01:53:18.219Z,0.00
2023-04-30T01:54:18.157Z,0.00
2023-04-30T01:55:18.296Z,0.00
2023-04-30T01:56:18.166Z,0.00
2023-04-30T01:57:18.299Z,0.00
2023-04-30T01:58:18.199Z,0.00
2023-04-30T01:59:18.137Z,0.00
2023-04-30T02:00:18.053Z,0.00
2023-04-30T02:01:18.146Z,0.00
2023-04-30T02:02:18.212Z,0.00
2023-04-30T02:03:18.099Z,0.00
2023-04-30T02:04:18.086Z,0.00
2023-04-30T02:05:17.965Z,0.00
2023-04-30T02:06:18.091Z,0.00
2023-04-30T02:07:18.161Z,0.00
2023-04-30T02:08:18.204Z,0.00
2023-04-30T02:09:18.030Z,0.00
2023-04-30T02:10:18.047Z,0.00
2023-04-30T02:11:17.885Z,0.00
2023-04-30T02:12:17.942Z,0.00
2023-04-30T02:13:18.131Z,0.00
2023-04-30T02:14:17.978Z,0.00
2023-04-30T02:15:17.982Z,0.00
2023-04-30T02:16:18.095Z,0.00
2023-04-30T02:17:17.935Z,0.00
2023-04-30T02:18:18.011Z,0.00
2023-04-30T02:19:17.903Z,0.00
2023-04-30T02:20:17.911Z,0.00
2023-04-30T02:21:17.928Z,0.00
2023-04-30T02:22:17.860Z,0.00
2023-04-30T02:23:18.018Z,0.00
2023-04-30T02:24:17.851Z,0.00
2023-04-30T02:25:17.849Z,0.00
2023-04-30T02:26:17.851Z,0.00
2023-04-30T02:27:17.850Z,0.00
2023-04-30T02:28:17.835Z,0.00
2023-04-30T02:29:17.917Z,0.00
2023-04-30T02:30:17.928Z,0.00
2023-04-30T02:31:17.808Z,0.00
2023-04-30T02:32:17.787Z,0.00
2023-04-30T02:33:17.800Z,0.00
2023-04-30T02:34:17.815Z,0.00
2023-04-30T02:35:17.613Z,0.00
2023-04-30T02:36:17.723Z,0.00
2023-04-30T02:37:17.726Z,0.00
2023-04-30T02:38:17.739Z,0.00
2023-04-30T02:39:17.685Z,0.00
2023-04-30T02:40:17.780Z,0.00
2023-04-30T02:41:17.601Z,0.00
2023-04-30T02:42:17.708Z,0.00
2023-04-30T02:43:17.659Z,0.00
2023-04-30T02:44:17.735Z,0.00
2023-04-30T02:45:17.737Z,0.00
2023-04-30T02:46:17.681Z,0.00
2023-04-30T02:47:17.666Z,0.00
2023-04-30T02:48:17.597Z,0.00
2023-04-30T02:49:17.428Z,0.00
2023-04-30T02:50:17.606Z,0.00
2023-04-30T02:51:17.496Z,0.00
2023-04-30T02:52:17.633Z,0.00
2023-04-30T02:53:17.540Z,0.00
2023-04-30T02:54:17.549Z,0.00
2023-04-30T02:55:17.574Z,0.00
2023-04-30T02:56:17.580Z,0.00
2023-04-30T02:57:17.526Z,0.00
2023-04-30T02:58:17.469Z,0.00
2023-04-30T02:59:17.437Z,0.00
2023-04-30T03:00:17.444Z,0.00
2023-04-30T03:01:17.559Z,0.00
2023-04-30T03:02:17.506Z,0.00
2023-04-30T03:03:17.529Z,0.00
2023-04-30T03:04:17.413Z,0.00
2023-04-30T03:05:17.373Z,0.00
2023-04-30T03:06:17.389Z,0.00
2023-04-30T03:07:17.419Z,0.00
2023-04-30T03:08:17.529Z,0.00
2023-04-30T03:09:17.400Z,0.00
2023-04-30T03:10:17.429Z,0.00
2023-04-30T03:11:17.377Z,0.00
2023-04-30T03:12:17.387Z,0.00
2023-04-30T03:13:17.410Z,0.00
2023-04-30T03:14:17.367Z,0.00
2023-04-30T03:15:17.426Z,0.00
2023-04-30T03:16:17.333Z,0.00
2023-04-30T03:17:17.332Z,0.00
2023-04-30T03:18:17.454Z,0.00
2023-04-30T03:19:17.339Z,1.00
2023-04-30T03:20:17.313Z,0.00
2023-04-30T03:21:17.235Z,1.00
2023-04-30T03:22:17.236Z,1.00
2023-04-30T03:23:17.035Z,1.00
2023-04-30T03:24:17.227Z,0.00
2023-04-30T03:25:17.297Z,2.00
2023-04-30T03:26:17.023Z,2.00
2023-04-30T03:27:17.063Z,1.00
2023-04-30T03:28:17.053Z,0.00
2023-04-30T03:29:17.168Z,1.00
2023-04-30T03:30:17.193Z,2.00
2023-04-30T03:31:17.189Z,9.00
2023-04-30T03:32:16.993Z,1.00
2023-04-30T03:33:17.065Z,2.00
2023-04-30T03:34:17.197Z,1.00
2023-04-30T03:35:17.055Z,7.00
2023-04-30T03:36:16.967Z,11.00
2023-04-30T03:37:17.150Z,7.00
2023-04-30T03:38:17.083Z,7.00
2023-04-30T03:39:17.019Z,9.00
2023-04-30T03:40:17.032Z,10.00
2023-04-30T03:41:17.066Z,14.00
2023-04-30T03:42:17.105Z,17.00
2023-04-30T03:43:17.043Z,18.00
2023-04-30T03:44:17.059Z,24.00
2023-04-30T03:45:16.968Z,27.00
2023-04-30T03:46:17.083Z,25.00
2023-04-30T03:47:17.058Z,31.00
2023-04-30T03:48:17.083Z,36.00
2023-04-30T03:49:16.920Z,43.00
2023-04-30T03:50:16.925Z,46.00
2023-04-30T03:51:16.925Z,53.00
2023-04-30T03:52:17.019Z,59.00
2023-04-30T03:53:16.873Z,67.00
2023-04-30T03:54:16.892Z,74.00
2023-04-30T03:55:16.756Z,80.00
2023-04-30T03:56:16.924Z,90.00
2023-04-30T03:57:16.942Z,99.00
2023-04-30T03:58:16.880Z,104.00
2023-04-30T03:59:16.875Z,118.00
2023-04-30T04:00:16.709Z,123.00
2023-04-30T04:01:16.708Z,135.00
2023-04-30T04:02:17.097Z,150.00
2023-04-30T04:03:16.858Z,164.00
2023-04-30T04:04:16.884Z,176.00
2023-04-30T04:05:16.773Z,187.00
2023-04-30T04:06:16.806Z,199.00
2023-04-30T04:07:16.893Z,215.00
2023-04-30T04:08:16.772Z,229.00
2023-04-30T04:09:16.768Z,247.00
2023-04-30T04:10:16.766Z,258.00
2023-04-30T04:11:16.836Z,273.00
2023-04-30T04:12:16.785Z,286.00
2023-04-30T04:13:16.765Z,305.00
2023-04-30T04:14:16.762Z,330.00
2023-04-30T04:15:16.726Z,343.00
2023-04-30T04:16:16.839Z,358.00
2023-04-30T04:17:16.648Z,379.00
2023-04-30T04:18:16.549Z,401.00
2023-04-30T04:19:16.654Z,418.00
2023-04-30T04:20:16.637Z,440.00
2023-04-30T04:21:16.616Z,454.00
2023-04-30T04:22:16.719Z,495.00
2023-04-30T04:23:16.701Z,519.00
2023-04-30T04:24:16.616Z,520.00
2023-04-30T04:25:16.621Z,562.00
2023-04-30T04:26:16.712Z,623.00
2023-04-30T04:27:16.622Z,655.00
2023-04-30T04:28:16.608Z,704.00
2023-04-30T04:29:16.681Z,746.00
2023-04-30T04:30:16.663Z,759.00
2023-04-30T04:31:16.525Z,806.00
2023-04-30T04:32:16.517Z,861.00
2023-04-30T04:33:16.528Z,902.00
2023-04-30T04:34:16.338Z,944.00
2023-04-30T04:35:16.606Z,922.00
2023-04-30T04:36:16.653Z,975.00
2023-04-30T04:37:16.363Z,978.00
2023-04-30T04:38:16.441Z,1118.00
2023-04-30T04:39:16.514Z,1083.00
2023-04-30T04:40:16.424Z,1416.00
2023-04-30T04:41:16.495Z,806.00
2023-04-30T04:42:16.487Z,1250.00
2023-04-30T04:43:16.317Z,1107.00
2023-04-30T04:44:16.509Z,1313.00
2023-04-30T04:45:16.371Z,1195.00
2023-04-30T04:46:16.412Z,1262.00
2023-04-30T04:47:16.395Z,1335.00
2023-04-30T04:48:16.434Z,1481.00
2023-04-30T04:49:16.382Z,1571.00
2023-04-30T04:50:16.250Z,1525.00
2023-04-30T04:51:16.350Z,1612.00
2023-04-30T04:52:16.363Z,1648.00
2023-04-30T04:53:16.126Z,1665.00
2023-04-30T04:54:16.250Z,1783.00
2023-04-30T04:55:16.352Z,1776.00
2023-04-30T04:56:16.302Z,1843.00
2023-04-30T04:57:16.326Z,1941.00
2023-04-30T04:58:16.270Z,1947.00
2023-04-30T04:59:16.212Z,2001.00
2023-04-30T05:00:16.235Z,2034.00
2023-04-30T05:01:16.083Z,2090.00
2023-04-30T05:02:16.288Z,2129.00
2023-04-30T05:03:16.309Z,2159.00
2023-04-30T05:04:16.357Z,2204.00
2023-04-30T05:05:16.171Z,2248.00
2023-04-30T05:06:16.247Z,2277.00
2023-04-30T05:07:16.126Z,2319.00
2023-04-30T05:08:16.149Z,2376.00
2023-04-30T05:09:15.985Z,2419.00
2023-04-30T05:10:16.178Z,2477.00
2023-04-30T05:11:16.128Z,2539.00
2023-04-30T05:12:15.934Z,2589.00
2023-04-30T05:13:16.097Z,2639.00
2023-04-30T05:14:16.117Z,2671.00
2023-04-30T05:15:16.128Z,2720.00
2023-04-30T05:16:16.109Z,2786.00
2023-04-30T05:17:15.992Z,2798.00
2023-04-30T05:18:16.023Z,2738.00
2023-04-30T05:19:16.052Z,2819.00
2023-04-30T05:20:15.997Z,2923.00
2023-04-30T05:21:16.127Z,2952.00
2023-04-30T05:22:16.102Z,2986.00
2023-04-30T05:23:16.012Z,2977.00
2023-04-30T05:24:15.911Z,3000.00
2023-04-30T05:25:15.997Z,3056.00
2023-04-30T05:26:16.055Z,3152.00
2023-04-30T05:27:15.965Z,3231.00
2023-04-30T05:28:15.961Z,3295.00
2023-04-30T05:29:15.963Z,3313.00
2023-04-30T05:30:15.970Z,3365.00
2023-04-30T05:31:15.897Z,3402.00
2023-04-30T05:32:16.186Z,3420.00
2023-04-30T05:33:15.924Z,3482.00
2023-04-30T05:34:15.864Z,3494.00
2023-04-30T05:35:15.882Z,3515.00
2023-04-30T05:36:15.742Z,3543.00
2023-04-30T05:37:15.833Z,3574.00
2023-04-30T05:38:15.922Z,3588.00
2023-04-30T05:39:15.836Z,3621.00
2023-04-30T05:40:15.836Z,3663.00
2023-04-30T05:41:15.826Z,3680.00
2023-04-30T05:42:15.817Z,3687.00
2023-04-30T05:43:15.898Z,3707.00
2023-04-30T05:44:15.745Z,3723.00
2023-04-30T05:45:15.759Z,3757.00
2023-04-30T05:46:15.824Z,3786.00
2023-04-30T05:47:15.694Z,3815.00
2023-04-30T05:48:15.859Z,3829.00
2023-04-30T05:49:15.720Z,3864.00
2023-04-30T05:50:15.745Z,3858.00
2023-04-30T05:51:15.740Z,3926.00
2023-04-30T05:52:15.733Z,3971.00
2023-04-30T05:53:15.737Z,3977.00
2023-04-30T05:54:15.780Z,3988.00
2023-04-30T05:55:15.708Z,4012.00
2023-04-30T05:56:15.703Z,4036.00
2023-04-30T05:57:15.561Z,4092.00
2023-04-30T05:58:15.780Z,4122.00
2023-04-30T05:59:15.600Z,4152.00
2023-04-30T06:00:15.740Z,4187.00
2023-04-30T06:01:15.458Z,4216.00
2023-04-30T06:02:15.502Z,4270.00
2023-04-30T06:03:15.477Z,4287.00
2023-04-30T06:04:15.545Z,4379.00
2023-04-30T06:05:16.294Z,4405.00
2023-04-30T06:06:15.668Z,4438.00
2023-04-30T06:07:15.399Z,4383.00
2023-04-30T06:08:15.389Z,4483.00
2023-04-30T06:09:15.391Z,4537.00
2023-04-30T06:10:15.399Z,4584.00
2023-04-30T06:11:15.437Z,4664.00
2023-04-30T06:12:15.316Z,4751.00
2023-04-30T06:13:15.354Z,4732.00
2023-04-30T06:14:15.445Z,4867.00
2023-04-30T06:15:15.333Z,4945.00
2023-04-30T06:16:15.424Z,4987.00
2023-04-30T06:17:15.462Z,5051.00
2023-04-30T06:18:15.273Z,5074.00
2023-04-30T06:19:15.252Z,5287.00
2023-04-30T06:20:15.273Z,5317.00
2023-04-30T06:21:15.274Z,5299.00
2023-04-30T06:22:15.567Z,5448.00
2023-04-30T06:23:15.251Z,5420.00
2023-04-30T06:24:15.287Z,5844.00
2023-04-30T06:25:15.266Z,6554.00
2023-04-30T06:26:15.361Z,6424.00
2023-04-30T06:27:15.190Z,3352.00
2023-04-30T06:28:15.238Z,9873.00
2023-04-30T06:29:15.218Z,29388.00
2023-04-30T06:30:15.182Z,76688.00
2023-04-30T06:31:15.288Z,78262.00
2023-04-30T06:32:15.184Z,76697.00
2023-04-30T06:33:15.234Z,76796.00
2023-04-30T06:34:15.139Z,76999.00
2023-04-30T06:35:15.075Z,75161.00
2023-04-30T06:36:15.092Z,75088.00
2023-04-30T06:37:15.049Z,75333.00
2023-04-30T06:38:15.082Z,76752.00
2023-04-30T06:39:15.077Z,78066.00
2023-04-30T06:40:15.036Z,79208.00
2023-04-30T06:41:15.037Z,78399.00
2023-04-30T06:42:15.024Z,76316.00
2023-04-30T06:43:14.989Z,74923.00
2023-04-30T06:44:15.241Z,76640.00
2023-04-30T06:45:15.069Z,78997.00
2023-04-30T06:46:15.381Z,77598.00
2023-04-30T06:47:15.133Z,77225.00
2023-04-30T06:48:15.067Z,78358.00
2023-04-30T06:49:14.997Z,75309.00
2023-04-30T06:50:15.154Z,68401.00
2023-04-30T06:51:15.111Z,29743.00
2023-04-30T06:52:15.094Z,15065.00
2023-04-30T06:53:14.931Z,6604.00
2023-04-30T06:54:14.868Z,2968.00
2023-04-30T06:55:15.080Z,6163.00
2023-04-30T06:56:14.972Z,22842.00
2023-04-30T06:57:14.989Z,79199.00
2023-04-30T06:58:14.984Z,78335.00
2023-04-30T06:59:15.008Z,74355.00
2023-04-30T07:00:14.949Z,72087.00
2023-04-30T07:01:15.081Z,75735.00
2023-04-30T07:02:15.011Z,78092.00
2023-04-30T07:03:15.026Z,76185.00
2023-04-30T07:04:14.956Z,80752.00
2023-04-30T07:05:15.027Z,80518.00
2023-04-30T07:06:14.861Z,75951.00
2023-04-30T07:07:14.783Z,76623.00
2023-04-30T07:08:14.923Z,80226.00
2023-04-30T07:09:14.934Z,79942.00
2023-04-30T07:10:14.861Z,77903.00
2023-04-30T07:11:14.941Z,78453.00
2023-04-30T07:12:14.869Z,79051.00
2023-04-30T07:13:14.779Z,79141.00
2023-04-30T07:14:14.867Z,78021.00
2023-04-30T07:15:14.942Z,76676.00
2023-04-30T07:16:14.897Z,77725.00
2023-04-30T07:17:14.896Z,77389.00
2023-04-30T07:18:14.837Z,77428.00
2023-04-30T07:19:14.781Z,78736.00
2023-04-30T07:20:14.875Z,77765.00
2023-04-30T07:21:14.789Z,73437.00
2023-04-30T07:22:14.784Z,74453.00
2023-04-30T07:23:14.785Z,77680.00
2023-04-30T07:24:14.854Z,79412.00
2023-04-30T07:25:14.755Z,81935.00
2023-04-30T07:26:14.811Z,81510.00
2023-04-30T07:27:14.773Z,78917.00
2023-04-30T07:28:14.716Z,76861.00
2023-04-30T07:29:14.731Z,77613.00
2023-04-30T07:30:14.701Z,78539.00
2023-04-30T07:31:14.786Z,75340.00
2023-04-30T07:32:14.645Z,69320.00
2023-04-30T07:33:14.741Z,24081.00
2023-04-30T07:34:14.656Z,13897.00
2023-04-30T07:35:14.611Z,3183.00
2023-04-30T07:36:14.648Z,8990.00
2023-04-30T07:37:14.609Z,79526.00
2023-04-30T07:38:14.622Z,80907.00
2023-04-30T07:39:14.676Z,80302.00
2023-04-30T07:40:21.927Z,78076.00
2023-04-30T07:41:14.599Z,77841.00
2023-04-30T07:42:14.658Z,77358.00
2023-04-30T07:43:14.567Z,77335.00
2023-04-30T07:44:14.551Z,78905.00
2023-04-30T07:45:14.530Z,78521.00
2023-04-30T07:46:14.536Z,75095.00
2023-04-30T07:47:14.518Z,79101.00
2023-04-30T07:48:14.602Z,80215.00
2023-04-30T07:49:14.516Z,78361.00
2023-04-30T07:50:14.520Z,78137.00
2023-04-30T07:51:14.399Z,76918.00
2023-04-30T07:52:14.471Z,79513.00
2023-04-30T07:53:14.478Z,78291.00
2023-04-30T07:54:14.514Z,64526.00
2023-04-30T07:55:14.495Z,21891.00
2023-04-30T07:56:14.561Z,7776.00
2023-04-30T07:57:14.412Z,7404.00
2023-04-30T07:58:14.420Z,7231.00
2023-04-30T07:59:14.569Z,7077.00
2023-04-30T08:00:14.426Z,6954.00
2023-04-30T08:01:14.368Z,6864.00
2023-04-30T08:02:14.475Z,6808.00
2023-04-30T08:03:14.431Z,6727.00
2023-04-30T08:04:14.446Z,6820.00
2023-04-30T08:05:14.334Z,6819.00
2023-04-30T08:06:14.366Z,6844.00
2023-04-30T08:07:14.272Z,6859.00
2023-04-30T08:08:14.328Z,6830.00
2023-04-30T08:09:14.296Z,6777.00
2023-04-30T08:10:14.274Z,3277.00
2023-04-30T08:11:14.258Z,3324.00
2023-04-30T08:12:14.303Z,16576.00
2023-04-30T08:13:14.948Z,62836.00
2023-04-30T08:14:14.138Z,17593.00
2023-04-30T08:15:14.144Z,6680.00
2023-04-30T08:16:14.237Z,6389.00
2023-04-30T08:17:14.236Z,6258.00
2023-04-30T08:18:14.331Z,6205.00
2023-04-30T08:19:14.102Z,6210.00
2023-04-30T08:20:14.128Z,6226.00
2023-04-30T08:21:14.132Z,6217.00
2023-04-30T08:22:14.258Z,6209.00
2023-04-30T08:23:14.022Z,6229.00
2023-04-30T08:24:14.217Z,6277.00
2023-04-30T08:25:14.160Z,6346.00
2023-04-30T08:26:14.133Z,6386.00
2023-04-30T08:27:14.097Z,6383.00
2023-04-30T08:28:14.228Z,6379.00
2023-04-30T08:29:14.168Z,6383.00
2023-04-30T08:30:14.154Z,6360.00
2023-04-30T08:31:14.126Z,6291.00
2023-04-30T08:32:14.465Z,6242.00
2023-04-30T08:33:14.172Z,6221.00
2023-04-30T08:34:14.104Z,6170.00
2023-04-30T08:35:14.181Z,6095.00
2023-04-30T08:36:13.945Z,6043.00
2023-04-30T08:37:13.917Z,6069.00
2023-04-30T08:38:13.927Z,6117.00
2023-04-30T08:39:14.048Z,6339.00
2023-04-30T08:40:14.032Z,6408.00
2023-04-30T08:41:14.044Z,6407.00
2023-04-30T08:42:13.981Z,6409.00
2023-04-30T08:43:13.941Z,6409.00
2023-04-30T08:44:13.933Z,6392.00
2023-04-30T08:45:13.780Z,6368.00
2023-04-30T08:46:14.020Z,6378.00
2023-04-30T08:47:13.795Z,6410.00
2023-04-30T08:48:13.897Z,6440.00
2023-04-30T08:49:13.929Z,6472.00
2023-04-30T08:50:13.904Z,6499.00
2023-04-30T08:51:13.935Z,6534.00
2023-04-30T08:52:13.845Z,6552.00
2023-04-30T08:53:13.826Z,6574.00
2023-04-30T08:54:13.824Z,6622.00
2023-04-30T08:55:13.848Z,6696.00
2023-04-30T08:56:13.880Z,6769.00
2023-04-30T08:57:13.884Z,6697.00
2023-04-30T08:58:13.791Z,2161.00
2023-04-30T08:59:13.773Z,13083.00
2023-04-30T09:00:13.759Z,14932.00
2023-04-30T09:01:13.822Z,8027.00
2023-04-30T09:02:13.901Z,6940.00
2023-04-30T09:03:13.996Z,6869.00
2023-04-30T09:04:14.063Z,6862.00
2023-04-30T09:05:13.821Z,6862.00
2023-04-30T09:06:13.683Z,6884.00
2023-04-30T09:07:13.757Z,6940.00
2023-04-30T09:08:13.744Z,6922.00
2023-04-30T09:09:13.775Z,6919.00
2023-04-30T09:10:13.714Z,6906.00
2023-04-30T09:11:13.762Z,6997.00
2023-04-30T09:12:15.168Z,7041.00
2023-04-30T09:13:13.684Z,7049.00
2023-04-30T09:14:13.661Z,7092.00
2023-04-30T09:15:13.644Z,7147.00
2023-04-30T09:16:13.631Z,7192.00
2023-04-30T09:17:13.678Z,7226.00
2023-04-30T09:18:13.687Z,7209.00
2023-04-30T09:19:13.696Z,7050.00
2023-04-30T09:20:13.590Z,7357.00
2023-04-30T09:21:13.447Z,8107.00
2023-04-30T09:22:13.654Z,8814.00
2023-04-30T09:23:13.534Z,8491.00
2023-04-30T09:24:13.688Z,8070.00
2023-04-30T09:25:13.633Z,7745.00
2023-04-30T09:26:13.576Z,7696.00
2023-04-30T09:27:13.619Z,7675.00
2023-04-30T09:28:13.490Z,7623.00
2023-04-30T09:29:13.516Z,4991.00
2023-04-30T09:30:13.477Z,3820.00
2023-04-30T09:31:13.579Z,23834.00
2023-04-30T09:32:13.545Z,31490.00
2023-04-30T09:33:13.538Z,17065.00
2023-04-30T09:34:13.456Z,9092.00
2023-04-30T09:35:13.423Z,8235.00
2023-04-30T09:36:13.491Z,8195.00
2023-04-30T09:37:13.391Z,8228.00
2023-04-30T09:38:13.376Z,8250.00
2023-04-30T09:39:15.242Z,8019.00
2023-04-30T09:40:13.385Z,4941.00
2023-04-30T09:41:13.374Z,9847.00
2023-04-30T09:42:13.440Z,21365.00
2023-04-30T09:43:13.411Z,77064.00
2023-04-30T09:44:13.379Z,76693.00
2023-04-30T09:45:13.345Z,73311.00
2023-04-30T09:46:13.414Z,73389.00
2023-04-30T09:47:13.364Z,74142.00
2023-04-30T09:48:17.661Z,72453.00
2023-04-30T09:49:13.360Z,72888.00
2023-04-30T09:50:13.277Z,73580.00
2023-04-30T09:51:13.204Z,74888.00
2023-04-30T09:52:13.386Z,75550.00
2023-04-30T09:53:13.302Z,74957.00
2023-04-30T09:54:13.285Z,74570.00
2023-04-30T09:55:13.284Z,72469.00
2023-04-30T09:56:13.340Z,70559.00
2023-04-30T09:57:13.234Z,35332.00
2023-04-30T09:58:13.232Z,41423.00
2023-04-30T09:59:13.282Z,41544.00
2023-04-30T10:00:13.182Z,75411.00
2023-04-30T10:01:13.231Z,75021.00
2023-04-30T10:02:13.229Z,71543.00
2023-04-30T10:03:13.392Z,72347.00
2023-04-30T10:04:13.292Z,74487.00
2023-04-30T10:05:13.177Z,73744.00
2023-04-30T10:06:12.998Z,73745.00
2023-04-30T10:07:15.675Z,73138.00
2023-04-30T10:08:13.109Z,73282.00
2023-04-30T10:09:13.273Z,72070.00
2023-04-30T10:10:13.104Z,71228.00
2023-04-30T10:11:13.135Z,72944.00
2023-04-30T10:12:13.064Z,76139.00
2023-04-30T10:13:13.169Z,74367.00
2023-04-30T10:14:13.134Z,72708.00
2023-04-30T10:15:13.129Z,73687.00
2023-04-30T10:16:13.083Z,74489.00
2023-04-30T10:17:13.039Z,73237.00
2023-04-30T10:18:13.036Z,70080.00
2023-04-30T10:19:13.022Z,42131.00
2023-04-30T10:20:13.038Z,39295.00
2023-04-30T10:21:12.902Z,41124.00
2023-04-30T10:22:13.025Z,74402.00
2023-04-30T10:23:13.191Z,75757.00
2023-04-30T10:24:13.016Z,73213.00
2023-04-30T10:25:13.017Z,70647.00
2023-04-30T10:26:12.998Z,41137.00
2023-04-30T10:27:13.039Z,35894.00
2023-04-30T10:28:12.831Z,40053.00
2023-04-30T10:29:12.830Z,33221.00
2023-04-30T10:30:12.864Z,24525.00
2023-04-30T10:31:12.822Z,15766.00
2023-04-30T10:32:13.004Z,11680.00
2023-04-30T10:33:15.659Z,10964.00
2023-04-30T10:34:12.796Z,10278.00
2023-04-30T10:35:12.779Z,9695.00
2023-04-30T10:36:12.822Z,9169.00
2023-04-30T10:37:13.038Z,8709.00
2023-04-30T10:38:12.737Z,8325.00
2023-04-30T10:39:12.876Z,7987.00
2023-04-30T10:40:12.873Z,7746.00
2023-04-30T10:41:13.013Z,7636.00
2023-04-30T10:42:12.719Z,7673.00
2023-04-30T10:43:12.702Z,7814.00
2023-04-30T10:44:12.855Z,7945.00
2023-04-30T10:45:12.861Z,8099.00
2023-04-30T10:46:12.894Z,8347.00
2023-04-30T10:47:12.825Z,8267.00
2023-04-30T10:48:12.820Z,8519.00
2023-04-30T10:49:12.824Z,9038.00
2023-04-30T10:50:12.703Z,9525.00
2023-04-30T10:51:12.661Z,9789.00
2023-04-30T10:52:12.781Z,9770.00
2023-04-30T10:53:12.763Z,9283.00
2023-04-30T10:54:12.760Z,11227.00
2023-04-30T10:55:12.760Z,13242.00
2023-04-30T10:56:12.754Z,12814.00
2023-04-30T10:57:12.830Z,11752.00
2023-04-30T10:58:12.754Z,10307.00
2023-04-30T10:59:12.693Z,8599.00
2023-04-30T11:00:12.709Z,7250.00
2023-04-30T11:01:12.847Z,6324.00
2023-04-30T11:02:12.695Z,5550.00
2023-04-30T11:03:12.596Z,4871.00
2023-04-30T11:04:12.613Z,4313.00
2023-04-30T11:05:12.627Z,3937.00
2023-04-30T11:06:12.713Z,3716.00
2023-04-30T11:07:12.561Z,3554.00
2023-04-30T11:08:12.537Z,3420.00
2023-04-30T11:09:12.564Z,3312.00
2023-04-30T11:10:12.527Z,3223.00
2023-04-30T11:11:12.624Z,3155.00
2023-04-30T11:12:12.860Z,3118.00
2023-04-30T11:13:12.565Z,3095.00
2023-04-30T11:14:12.592Z,3079.00
2023-04-30T11:15:12.587Z,3072.00
2023-04-30T11:16:12.627Z,3052.00
2023-04-30T11:17:12.487Z,3024.00
2023-04-30T11:18:12.611Z,2992.00
2023-04-30T11:19:12.457Z,2966.00
2023-04-30T11:20:12.598Z,2945.00
2023-04-30T11:21:12.303Z,2931.00
2023-04-30T11:22:12.453Z,2933.00
2023-04-30T11:23:12.651Z,2922.00
2023-04-30T11:24:12.482Z,2904.00
2023-04-30T11:25:12.416Z,2889.00
2023-04-30T11:26:12.487Z,2875.00
2023-04-30T11:27:12.504Z,2860.00
2023-04-30T11:28:12.397Z,2844.00
2023-04-30T11:29:12.487Z,2830.00
2023-04-30T11:30:12.350Z,2814.00
2023-04-30T11:31:14.570Z,2792.00
2023-04-30T11:32:12.364Z,2762.00
2023-04-30T11:33:12.247Z,2738.00
2023-04-30T11:34:12.448Z,2719.00
2023-04-30T11:35:12.230Z,2701.00
2023-04-30T11:36:12.190Z,2682.00
2023-04-30T11:37:12.204Z,2667.00
2023-04-30T11:38:12.368Z,2652.00
2023-04-30T11:39:12.272Z,2648.00
2023-04-30T11:40:12.140Z,2638.00
2023-04-30T11:41:12.283Z,2630.00
2023-04-30T11:42:12.276Z,2621.00
2023-04-30T11:43:12.338Z,2614.00
2023-04-30T11:44:12.068Z,2607.00
2023-04-30T11:45:12.232Z,2593.00
2023-04-30T11:46:12.277Z,2586.00
2023-04-30T11:47:12.261Z,2579.00
2023-04-30T11:48:12.280Z,2567.00
2023-04-30T11:49:12.279Z,2558.00
2023-04-30T11:50:12.167Z,2540.00
2023-04-30T11:51:12.133Z,2523.00
2023-04-30T11:52:12.018Z,2515.00
2023-04-30T11:53:12.176Z,2501.00
2023-04-30T11:54:12.058Z,2487.00
2023-04-30T11:55:12.133Z,2480.00
2023-04-30T11:56:12.252Z,2468.00
2023-04-30T11:57:12.139Z,2454.00
2023-04-30T11:58:12.037Z,2445.00
2023-04-30T11:59:11.921Z,2442.00
2023-04-30T12:00:12.125Z,2435.00
2023-04-30T12:01:11.912Z,2422.00
2023-04-30T12:02:13.593Z,2405.00
2023-04-30T12:03:12.005Z,2389.00
2023-04-30T12:04:12.127Z,2377.00
2023-04-30T12:05:11.847Z,2368.00
2023-04-30T12:06:11.934Z,2362.00
2023-04-30T12:07:11.820Z,2357.00
2023-04-30T12:08:11.819Z,2351.00
2023-04-30T12:09:11.982Z,2336.00
2023-04-30T12:10:11.950Z,2319.00
2023-04-30T12:11:11.949Z,2316.00
2023-04-30T12:12:12.022Z,2312.00
2023-04-30T12:13:11.922Z,2293.00
2023-04-30T12:14:11.922Z,2266.00
2023-04-30T12:15:11.979Z,2243.00
2023-04-30T12:16:11.955Z,2227.00
2023-04-30T12:17:11.801Z,2222.00
2023-04-30T12:18:11.781Z,2214.00
2023-04-30T12:19:11.775Z,2196.00
2023-04-30T12:20:11.723Z,2181.00
2023-04-30T12:21:11.809Z,2162.00
2023-04-30T12:22:11.686Z,2152.00
2023-04-30T12:23:11.834Z,2145.00